createdAt,value
2022-10-31T00:01:21.204Z,10.67
2022-10-31T00:03:48.831Z,10.59
2022-10-31T00:06:19.062Z,10.70
2022-10-31T00:08:53.451Z,10.62
2022-10-31T00:11:20.904Z,10.70
2022-10-31T00:13:48.039Z,10.76
2022-10-31T00:16:19.910Z,10.73
2022-10-31T00:18:54.877Z,10.63
2022-10-31T00:21:22.808Z,10.61
2022-10-31T00:23:50.142Z,10.62
2022-10-31T00:26:17.653Z,10.67
2022-10-31T00:28:44.660Z,10.68
2022-10-31T00:31:13.807Z,10.61
2022-10-31T00:33:41.633Z,10.58
2022-10-31T00:36:12.616Z,10.49
2022-10-31T00:38:41.420Z,10.57
2022-10-31T00:41:08.934Z,10.58
2022-10-31T00:43:35.961Z,10.60
2022-10-31T00:46:03.355Z,10.62
2022-10-31T00:48:30.730Z,10.60
2022-10-31T00:50:57.923Z,10.61
2022-10-31T00:53:25.349Z,10.61
2022-10-31T00:55:53.111Z,10.58
2022-10-31T00:58:20.169Z,10.54
2022-10-31T01:00:56.949Z,10.59
2022-10-31T01:03:32.312Z,10.62
2022-10-31T01:06:05.865Z,10.57
2022-10-31T01:08:33.432Z,10.56
2022-10-31T01:11:18.583Z,10.60
2022-10-31T01:13:46.044Z,10.63
2022-10-31T01:16:15.629Z,10.61
2022-10-31T01:18:43.289Z,10.56
2022-10-31T01:21:16.090Z,10.61
2022-10-31T01:23:43.439Z,10.63
2022-10-31T01:26:20.713Z,10.67
2022-10-31T01:28:50.977Z,10.60
2022-10-31T01:31:19.592Z,10.58
2022-10-31T01:33:46.786Z,10.55
2022-10-31T01:36:20.232Z,10.56
2022-10-31T01:38:51.017Z,10.54
2022-10-31T01:41:24.034Z,10.46
2022-10-31T01:44:00.640Z,10.44
2022-10-31T01:46:36.207Z,10.48
2022-10-31T01:49:07.300Z,10.44
2022-10-31T01:51:38.007Z,10.48
2022-10-31T01:54:09.642Z,10.37
2022-10-31T01:56:40.432Z,10.40
2022-10-31T01:59:10.292Z,10.38
2022-10-31T02:01:38.557Z,10.37
2022-10-31T02:04:07.089Z,10.34
2022-10-31T02:06:41.312Z,10.28
2022-10-31T02:09:08.759Z,10.28
2022-10-31T02:11:37.143Z,10.27
2022-10-31T02:14:04.510Z,10.29
2022-10-31T02:16:32.123Z,10.34
2022-10-31T02:18:59.180Z,10.38
2022-10-31T02:21:39.188Z,10.35
2022-10-31T02:24:44.768Z,10.33
2022-10-31T02:27:27.127Z,10.36
2022-10-31T02:30:11.079Z,10.36
2022-10-31T02:33:16.989Z,10.37
2022-10-31T02:36:06.661Z,10.35
2022-10-31T02:38:42.924Z,10.33
2022-10-31T02:41:50.098Z,10.26
2022-10-31T02:44:31.941Z,10.29
2022-10-31T02:47:00.783Z,10.19
2022-10-31T02:49:41.729Z,10.23
2022-10-31T02:52:24.840Z,10.18
2022-10-31T02:54:53.385Z,10.18
2022-10-31T02:57:32.105Z,10.08
2022-10-31T03:00:04.936Z,10.14
2022-10-31T03:02:39.971Z,10.16
2022-10-31T03:05:31.228Z,10.12
2022-10-31T03:07:58.453Z,10.11
2022-10-31T03:10:53.215Z,10.19
2022-10-31T03:13:39.742Z,10.09
2022-10-31T03:16:28.601Z,10.09
2022-10-31T03:19:03.315Z,10.10
2022-10-31T03:21:41.596Z,9.95
2022-10-31T03:24:09.799Z,10.03
2022-10-31T03:26:39.314Z,10.05
2022-10-31T03:29:07.991Z,10.03
2022-10-31T03:32:09.637Z,10.07
2022-10-31T03:34:38.069Z,10.07
2022-10-31T03:37:08.003Z,10.07
2022-10-31T03:39:35.478Z,10.07
2022-10-31T03:42:12.792Z,10.09
2022-10-31T03:44:43.138Z,10.13
2022-10-31T03:47:10.197Z,10.09
2022-10-31T03:49:37.377Z,10.18
2022-10-31T03:52:27.698Z,10.17
2022-10-31T03:54:59.974Z,10.09
2022-10-31T03:57:32.894Z,10.12
2022-10-31T04:00:10.303Z,10.06
2022-10-31T04:03:04.866Z,10.08
2022-10-31T04:05:32.844Z,10.11
2022-10-31T04:08:01.819Z,9.95
2022-10-31T04:10:32.863Z,9.93
2022-10-31T04:13:08.234Z,10.00
2022-10-31T04:15:37.200Z,9.99
2022-10-31T04:18:05.543Z,9.95
2022-10-31T04:20:40.913Z,9.98
2022-10-31T04:23:23.709Z,9.94
2022-10-31T04:25:51.104Z,9.96
2022-10-31T04:30:51.705Z,9.96
2022-10-31T04:33:19.481Z,9.94
2022-10-31T04:35:47.162Z,10.03
2022-10-31T04:38:14.216Z,10.05
2022-10-31T04:40:41.757Z,10.05
2022-10-31T04:43:09.713Z,10.11
2022-10-31T04:45:39.212Z,10.12
2022-10-31T04:48:07.229Z,10.03
2022-10-31T04:50:34.703Z,10.05
2022-10-31T04:53:02.186Z,10.06
2022-10-31T04:55:30.852Z,10.09
2022-10-31T04:57:59.814Z,10.01
2022-10-31T05:00:27.447Z,10.03
2022-10-31T05:02:57.929Z,10.03
2022-10-31T05:05:31.564Z,10.07
2022-10-31T05:07:58.935Z,10.12
2022-10-31T05:10:29.225Z,10.11
2022-10-31T05:13:01.031Z,10.22
2022-10-31T05:15:30.512Z,10.24
2022-10-31T05:18:02.004Z,10.19
2022-10-31T05:20:31.415Z,10.13
2022-10-31T05:23:00.220Z,10.14
2022-10-31T05:25:29.292Z,10.17
2022-10-31T05:27:57.611Z,10.23
2022-10-31T05:30:31.129Z,10.09
2022-10-31T05:32:59.229Z,10.12
2022-10-31T05:35:33.249Z,10.11
2022-10-31T05:38:01.983Z,10.11
2022-10-31T05:40:29.491Z,10.12
2022-10-31T05:42:58.030Z,10.13
2022-10-31T05:45:25.965Z,10.14
2022-10-31T05:47:53.917Z,10.19
2022-10-31T05:50:22.794Z,10.22
2022-10-31T05:52:57.482Z,10.24
2022-10-31T05:55:26.587Z,10.29
2022-10-31T05:57:55.574Z,10.20
2022-10-31T06:00:23.818Z,10.16
2022-10-31T06:02:50.643Z,10.22
2022-10-31T06:05:20.070Z,10.32
2022-10-31T06:07:47.034Z,10.25
2022-10-31T06:10:14.181Z,10.23
2022-10-31T06:12:41.687Z,10.22
2022-10-31T06:15:09.910Z,10.27
2022-10-31T06:17:37.090Z,10.34
2022-10-31T06:20:06.693Z,10.27
2022-10-31T06:22:35.412Z,10.11
2022-10-31T06:25:02.532Z,10.17
2022-10-31T06:27:30.122Z,10.14
2022-10-31T06:29:57.564Z,10.19
2022-10-31T06:32:24.967Z,10.23
2022-10-31T06:34:52.329Z,10.22
2022-10-31T06:37:19.477Z,10.28
2022-10-31T06:39:46.730Z,10.19
2022-10-31T06:42:17.101Z,10.19
2022-10-31T06:44:44.256Z,10.22
2022-10-31T06:47:17.412Z,10.25
2022-10-31T06:49:45.583Z,10.40
2022-10-31T06:52:13.044Z,10.47
2022-10-31T06:54:40.358Z,10.51
2022-10-31T06:57:07.515Z,10.47
2022-10-31T06:59:37.363Z,10.38
2022-10-31T07:02:06.263Z,10.27
2022-10-31T07:04:33.727Z,10.38
2022-10-31T07:07:01.399Z,10.38
2022-10-31T07:09:28.695Z,10.38
2022-10-31T07:11:56.038Z,10.39
2022-10-31T07:14:23.332Z,10.48
2022-10-31T07:16:51.589Z,10.52
2022-10-31T07:19:19.135Z,10.42
2022-10-31T07:21:46.176Z,10.51
2022-10-31T07:24:14.462Z,10.58
2022-10-31T07:26:48.484Z,10.73
2022-10-31T07:29:15.817Z,10.68
2022-10-31T07:31:45.060Z,10.80
2022-10-31T07:34:12.387Z,10.82
2022-10-31T07:36:42.664Z,10.79
2022-10-31T07:39:09.760Z,10.68
2022-10-31T07:41:36.877Z,10.56
2022-10-31T07:44:04.392Z,10.47
2022-10-31T07:46:34.178Z,10.59
2022-10-31T07:49:07.841Z,10.73
2022-10-31T07:51:45.559Z,10.79
2022-10-31T07:54:13.968Z,10.84
2022-10-31T07:56:44.148Z,10.93
2022-10-31T07:59:11.330Z,11.04
2022-10-31T08:01:38.339Z,11.14
2022-10-31T08:04:06.147Z,10.97
2022-10-31T08:06:40.288Z,11.03
2022-10-31T08:09:07.823Z,10.97
2022-10-31T08:11:34.922Z,11.06
2022-10-31T08:14:02.207Z,11.10
2022-10-31T08:16:29.513Z,11.37
2022-10-31T08:18:56.839Z,11.39
2022-10-31T08:21:24.004Z,11.45
2022-10-31T08:23:51.340Z,11.53
2022-10-31T08:26:19.493Z,11.61
2022-10-31T08:28:47.466Z,11.67
2022-10-31T08:31:14.927Z,11.70
2022-10-31T08:33:46.862Z,11.86
2022-10-31T08:36:19.676Z,11.95
2022-10-31T08:38:48.277Z,11.90
2022-10-31T08:41:16.513Z,11.91
2022-10-31T08:43:43.531Z,11.96
2022-10-31T08:46:11.799Z,11.99
2022-10-31T08:48:39.909Z,12.01
2022-10-31T08:51:07.379Z,12.03
2022-10-31T08:53:34.372Z,11.90
2022-10-31T08:56:03.977Z,12.02
2022-10-31T08:58:30.963Z,12.10
2022-10-31T09:01:00.446Z,11.93
2022-10-31T09:03:30.674Z,11.94
2022-10-31T09:05:59.928Z,11.94
2022-10-31T09:08:30.618Z,11.86
2022-10-31T09:10:58.451Z,11.88
2022-10-31T09:13:28.191Z,11.77
2022-10-31T09:15:59.691Z,11.80
2022-10-31T09:18:28.911Z,11.93
2022-10-31T09:20:58.978Z,11.99
2022-10-31T09:23:27.789Z,12.05
2022-10-31T09:25:55.393Z,12.06
2022-10-31T09:28:24.681Z,11.98
2022-10-31T09:30:54.031Z,11.85
2022-10-31T09:33:21.994Z,11.87
2022-10-31T09:35:51.304Z,11.91
2022-10-31T09:38:20.312Z,11.82
2022-10-31T09:40:55.767Z,11.64
2022-10-31T09:43:49.151Z,11.56
2022-10-31T09:46:27.617Z,11.57
2022-10-31T09:49:13.974Z,11.66
2022-10-31T09:51:53.072Z,11.64
2022-10-31T09:54:50.714Z,11.69
2022-10-31T09:57:26.724Z,11.62
2022-10-31T09:59:54.642Z,11.64
2022-10-31T10:02:26.921Z,11.53
2022-10-31T10:05:06.424Z,11.50
2022-10-31T10:07:40.524Z,11.69
2022-10-31T10:10:32.678Z,11.67
2022-10-31T10:13:21.569Z,11.75
2022-10-31T10:16:14.283Z,11.78
2022-10-31T10:18:54.195Z,11.52
2022-10-31T10:21:32.672Z,11.58
2022-10-31T10:24:20.128Z,11.54
2022-10-31T10:27:23.561Z,11.52
2022-10-31T10:29:59.804Z,11.42
2022-10-31T10:32:32.194Z,11.41
2022-10-31T10:35:22.309Z,11.59
2022-10-31T10:37:52.211Z,11.63
2022-10-31T10:40:25.948Z,11.65
2022-10-31T10:43:23.891Z,11.55
2022-10-31T10:46:11.739Z,11.63
2022-10-31T10:48:54.650Z,11.68
2022-10-31T10:51:39.033Z,11.41
2022-10-31T10:54:20.261Z,11.53
2022-10-31T10:56:56.824Z,11.64
2022-10-31T10:59:24.234Z,11.75
2022-10-31T11:01:52.585Z,11.84
2022-10-31T11:04:35.751Z,11.98
2022-10-31T11:07:08.044Z,11.87
2022-10-31T11:09:36.236Z,11.61
2022-10-31T11:12:31.137Z,11.50
2022-10-31T11:15:02.133Z,11.64
2022-10-31T11:17:39.666Z,11.70
2022-10-31T11:20:29.831Z,11.63
2022-10-31T11:23:24.472Z,11.42
2022-10-31T11:26:06.507Z,11.50
2022-10-31T11:28:35.961Z,11.65
2022-10-31T11:31:29.193Z,11.63
2022-10-31T11:34:12.397Z,11.46
2022-10-31T11:36:40.558Z,11.48
2022-10-31T11:39:17.867Z,11.51
2022-10-31T11:41:45.119Z,11.60
2022-10-31T11:44:29.883Z,11.53
2022-10-31T11:47:06.653Z,11.56
2022-10-31T11:49:40.189Z,11.57
2022-10-31T11:52:17.685Z,11.72
2022-10-31T11:55:14.687Z,11.85
2022-10-31T11:57:46.612Z,11.83
2022-10-31T12:00:34.492Z,11.71
2022-10-31T12:03:29.207Z,11.59
2022-10-31T12:06:09.341Z,11.60
2022-10-31T12:08:37.904Z,11.67
2022-10-31T12:11:31.116Z,11.70
2022-10-31T12:14:21.684Z,11.71
2022-10-31T12:17:03.470Z,11.58
2022-10-31T12:19:40.820Z,11.71
2022-10-31T12:22:19.956Z,11.59
2022-10-31T12:25:03.099Z,11.44
2022-10-31T12:27:39.350Z,11.26
2022-10-31T12:30:22.248Z,11.24
2022-10-31T12:32:58.336Z,11.30
2022-10-31T12:35:46.250Z,11.22
2022-10-31T12:38:34.677Z,11.13
2022-10-31T12:41:11.198Z,11.16
2022-10-31T12:44:05.753Z,11.30
2022-10-31T12:46:41.976Z,11.38
2022-10-31T12:49:21.323Z,11.30
2022-10-31T12:52:20.794Z,11.27
2022-10-31T12:55:19.918Z,11.24
2022-10-31T12:57:51.702Z,11.27
2022-10-31T13:00:20.485Z,11.03
2022-10-31T13:03:11.467Z,10.98
2022-10-31T13:05:41.411Z,10.93
2022-10-31T13:08:30.095Z,11.02
2022-10-31T13:11:10.910Z,10.92
2022-10-31T13:13:53.142Z,10.98
2022-10-31T13:16:23.249Z,11.06
2022-10-31T13:19:01.552Z,10.95
2022-10-31T13:21:46.264Z,10.91
2022-10-31T13:24:19.065Z,10.80
2022-10-31T13:26:51.890Z,10.89
2022-10-31T13:29:31.806Z,10.95
2022-10-31T13:32:01.969Z,10.84
2022-10-31T13:34:41.964Z,11.01
2022-10-31T13:37:33.532Z,10.98
2022-10-31T13:40:28.336Z,11.16
2022-10-31T13:42:58.469Z,11.14
2022-10-31T13:45:27.063Z,11.04
2022-10-31T13:48:01.667Z,10.96
2022-10-31T13:50:31.542Z,10.80
2022-10-31T13:53:36.405Z,10.68
2022-10-31T13:56:16.657Z,10.70
2022-10-31T13:58:58.223Z,10.67
2022-10-31T14:01:25.776Z,10.71
2022-10-31T14:04:13.886Z,10.76
2022-10-31T14:06:59.881Z,10.79
2022-10-31T14:09:34.162Z,10.68
2022-10-31T14:12:05.549Z,10.72
2022-10-31T14:14:40.523Z,10.78
2022-10-31T14:17:17.324Z,10.85
2022-10-31T14:19:44.596Z,10.68
2022-10-31T14:22:22.679Z,10.56
2022-10-31T14:24:49.935Z,10.51
2022-10-31T14:27:27.300Z,10.60
2022-10-31T14:29:54.846Z,10.59
2022-10-31T14:32:26.790Z,10.69
2022-10-31T14:34:58.340Z,10.71
2022-10-31T14:37:40.982Z,10.57
2022-10-31T14:40:26.570Z,10.54
2022-10-31T14:43:15.488Z,10.51
2022-10-31T14:45:54.593Z,10.62
2022-10-31T14:48:40.044Z,10.62
2022-10-31T14:51:24.428Z,10.64
2022-10-31T14:53:56.140Z,10.51
2022-10-31T14:56:30.752Z,10.52
2022-10-31T14:59:02.056Z,10.57
2022-10-31T15:01:35.954Z,10.58
2022-10-31T15:04:24.646Z,10.60
2022-10-31T15:07:01.349Z,10.47
2022-10-31T15:09:36.193Z,10.50
2022-10-31T15:12:30.351Z,10.44
2022-10-31T15:14:59.410Z,10.40
2022-10-31T15:17:27.566Z,10.33
2022-10-31T15:19:54.652Z,10.40
2022-10-31T15:22:24.691Z,10.46
2022-10-31T15:24:57.338Z,10.50
2022-10-31T15:27:25.741Z,10.51
2022-10-31T15:29:57.159Z,10.46
2022-10-31T15:32:29.247Z,10.37
2022-10-31T15:34:57.683Z,10.37
2022-10-31T15:37:26.456Z,10.31
2022-10-31T15:39:53.877Z,10.34
2022-10-31T15:42:33.902Z,10.33
2022-10-31T15:45:03.611Z,10.40
2022-10-31T15:47:32.048Z,10.34
2022-10-31T15:50:00.647Z,10.24
2022-10-31T15:52:48.602Z,10.15
2022-10-31T15:55:36.090Z,10.21
2022-10-31T15:58:15.392Z,10.19
2022-10-31T16:00:42.577Z,10.01
2022-10-31T16:03:15.724Z,10.09
2022-10-31T16:05:56.756Z,9.95
2022-10-31T16:08:30.134Z,9.94
2022-10-31T16:11:04.098Z,9.95
2022-10-31T16:13:34.738Z,9.99
2022-10-31T16:18:54.784Z,10.15
2022-10-31T16:21:32.815Z,10.10
2022-10-31T16:24:05.995Z,10.19
2022-10-31T16:26:34.099Z,10.26
2022-10-31T16:29:08.503Z,10.19
2022-10-31T16:31:40.497Z,10.22
2022-10-31T16:34:22.374Z,10.24
2022-10-31T16:36:52.322Z,10.18
2022-10-31T16:39:19.718Z,10.24
2022-10-31T16:41:50.440Z,10.27
2022-10-31T16:44:25.649Z,10.26
2022-10-31T16:47:09.740Z,10.18
2022-10-31T16:49:36.775Z,10.09
2022-10-31T16:52:04.142Z,10.08
2022-10-31T16:54:31.177Z,10.08
2022-10-31T16:56:59.853Z,9.98
2022-10-31T16:59:28.259Z,10.00
2022-10-31T17:01:55.647Z,9.99
2022-10-31T17:04:22.908Z,10.01
2022-10-31T17:06:50.172Z,9.99
2022-10-31T17:09:19.119Z,9.95
2022-10-31T17:11:49.607Z,10.00
2022-10-31T17:14:18.025Z,10.06
2022-10-31T17:16:45.067Z,10.07
2022-10-31T17:19:12.810Z,10.09
2022-10-31T17:21:40.393Z,10.02
2022-10-31T17:24:11.313Z,9.95
2022-10-31T17:26:38.323Z,10.00
2022-10-31T17:29:05.652Z,10.00
2022-10-31T17:31:36.102Z,10.01
2022-10-31T17:34:05.211Z,10.06
2022-10-31T17:36:34.114Z,10.06
2022-10-31T17:39:01.403Z,10.05
2022-10-31T17:41:28.391Z,10.07
2022-10-31T17:43:59.441Z,10.09
2022-10-31T17:46:27.036Z,10.11
2022-10-31T17:48:54.093Z,10.15
2022-10-31T17:51:21.405Z,10.21
2022-10-31T17:53:48.432Z,10.18
2022-10-31T17:56:15.444Z,10.20
2022-10-31T17:58:42.759Z,10.15
2022-10-31T18:01:12.020Z,10.15
2022-10-31T18:03:40.042Z,10.15
2022-10-31T18:06:07.504Z,10.05
2022-10-31T18:08:36.801Z,9.97
2022-10-31T18:11:09.591Z,10.01
2022-10-31T18:13:37.613Z,9.91
2022-10-31T18:16:13.135Z,9.95
2022-10-31T18:18:40.224Z,9.94
2022-10-31T18:21:07.529Z,9.90
2022-10-31T18:23:34.542Z,9.92
2022-10-31T18:26:01.850Z,9.98
2022-10-31T18:28:29.103Z,9.89
2022-10-31T18:30:59.440Z,9.94
2022-10-31T18:33:26.414Z,9.91
2022-10-31T18:35:53.706Z,9.94
2022-10-31T18:38:20.702Z,9.95
2022-10-31T18:40:47.903Z,9.98
2022-10-31T18:43:15.331Z,9.91
2022-10-31T18:45:52.331Z,9.79
2022-10-31T18:48:22.694Z,9.86
2022-10-31T18:50:49.710Z,9.92
2022-10-31T18:53:16.697Z,9.93
2022-10-31T18:55:47.488Z,9.91
2022-10-31T18:58:17.807Z,9.80
2022-10-31T19:00:46.032Z,9.75
2022-10-31T19:03:14.216Z,9.74
2022-10-31T19:05:41.250Z,9.72
2022-10-31T19:08:08.710Z,9.67
2022-10-31T19:10:37.257Z,9.61
2022-10-31T19:13:04.892Z,9.73
2022-10-31T19:15:34.662Z,9.65
2022-10-31T19:18:01.840Z,9.63
2022-10-31T19:20:29.563Z,9.64
2022-10-31T19:22:56.880Z,9.79
2022-10-31T19:25:23.854Z,9.73
2022-10-31T19:27:50.946Z,9.64
2022-10-31T19:30:18.859Z,9.64
2022-10-31T19:32:45.820Z,9.70
2022-10-31T19:35:12.832Z,9.59
2022-10-31T19:37:40.555Z,9.70
2022-10-31T19:40:11.136Z,9.63
2022-10-31T19:42:38.116Z,9.72
2022-10-31T19:45:05.893Z,9.56
2022-10-31T19:47:33.356Z,9.59
2022-10-31T19:50:00.377Z,9.50
2022-10-31T19:52:27.672Z,9.61
2022-10-31T19:54:54.642Z,9.65
2022-10-31T19:57:30.812Z,9.70
2022-10-31T20:00:09.710Z,9.69
2022-10-31T20:02:38.477Z,9.72
2022-10-31T20:05:06.128Z,9.75
2022-10-31T20:07:33.132Z,9.73
2022-10-31T20:10:00.138Z,9.80
2022-10-31T20:12:27.439Z,9.68
2022-10-31T20:14:54.419Z,9.58
2022-10-31T20:17:21.427Z,9.64
2022-10-31T20:19:48.940Z,9.63
2022-10-31T20:22:16.005Z,9.69
2022-10-31T20:24:43.023Z,9.65
2022-10-31T20:27:10.304Z,9.66
2022-10-31T20:29:37.286Z,9.64
2022-10-31T20:32:04.529Z,9.65
2022-10-31T20:34:31.806Z,9.65
2022-10-31T20:36:58.807Z,9.65
2022-10-31T20:39:25.818Z,9.59
2022-10-31T20:41:53.708Z,9.62
2022-10-31T20:44:20.950Z,9.51
2022-10-31T20:46:47.936Z,9.52
2022-10-31T20:49:15.232Z,9.60
2022-10-31T20:51:42.241Z,9.64
2022-10-31T20:54:13.139Z,9.50
2022-10-31T20:56:40.595Z,9.52
2022-10-31T20:59:07.681Z,9.49
2022-10-31T21:01:36.435Z,9.51
2022-10-31T21:04:05.340Z,9.54
2022-10-31T21:06:32.331Z,9.47
2022-10-31T21:08:59.360Z,9.46
2022-10-31T21:11:27.834Z,9.47
2022-10-31T21:13:55.134Z,9.40
2022-10-31T21:16:27.478Z,9.41
2022-10-31T21:18:55.025Z,9.42
2022-10-31T21:21:32.126Z,9.38
2022-10-31T21:24:07.055Z,9.41
2022-10-31T21:26:37.330Z,9.36
2022-10-31T21:29:05.516Z,9.47
2022-10-31T21:31:32.797Z,9.43
2022-10-31T21:33:59.797Z,9.50
2022-10-31T21:36:27.101Z,9.38
2022-10-31T21:38:55.455Z,9.31
2022-10-31T21:41:23.436Z,9.29
2022-10-31T21:43:51.942Z,9.27
2022-10-31T21:46:24.280Z,9.25
2022-10-31T21:48:52.117Z,9.33
2022-10-31T21:51:22.118Z,9.34
2022-10-31T21:54:08.423Z,9.32
2022-10-31T21:56:42.568Z,9.35
2022-10-31T21:59:09.895Z,9.39
2022-10-31T22:01:37.757Z,9.38
2022-10-31T22:04:05.916Z,9.37
2022-10-31T22:06:33.098Z,9.33
2022-10-31T22:09:01.933Z,9.32
2022-10-31T22:11:29.437Z,9.28
2022-10-31T22:13:58.565Z,9.33
2022-10-31T22:16:26.890Z,9.26
2022-10-31T22:18:56.444Z,9.32
2022-10-31T22:21:25.350Z,9.35
2022-10-31T22:24:00.562Z,9.38
2022-10-31T22:26:31.156Z,9.44
2022-10-31T22:28:59.596Z,9.35
2022-10-31T22:31:27.774Z,9.39
2022-10-31T22:33:55.927Z,9.40
2022-10-31T22:36:28.302Z,9.33
2022-10-31T22:38:55.979Z,9.23
2022-10-31T22:41:25.126Z,9.30
2022-10-31T22:43:52.319Z,9.33
2022-10-31T22:46:22.429Z,9.35
2022-10-31T22:49:01.568Z,9.38
2022-10-31T22:51:33.145Z,9.35
2022-10-31T22:54:00.397Z,9.30
2022-10-31T22:56:30.785Z,9.32
2022-10-31T22:58:58.827Z,9.27
2022-10-31T23:01:28.901Z,9.34
2022-10-31T23:03:56.159Z,9.24
2022-10-31T23:06:25.603Z,9.31
2022-10-31T23:08:53.529Z,9.35
2022-10-31T23:11:29.137Z,9.40
2022-10-31T23:14:09.066Z,9.31
2022-10-31T23:16:51.063Z,9.38
2022-10-31T23:19:22.025Z,9.22
2022-10-31T23:21:57.617Z,9.20
2022-10-31T23:24:44.623Z,9.19
2022-10-31T23:27:21.352Z,9.18
2022-10-31T23:29:59.394Z,9.17
2022-10-31T23:32:30.340Z,9.15
2022-10-31T23:35:03.398Z,9.22
2022-10-31T23:37:33.654Z,9.24
2022-10-31T23:40:01.015Z,9.17
2022-10-31T23:42:28.592Z,9.18
2022-10-31T23:44:56.017Z,9.19
2022-10-31T23:47:23.415Z,9.24
2022-10-31T23:49:50.794Z,9.21
2022-10-31T23:52:18.661Z,9.19
2022-10-31T23:54:45.936Z,9.18
2022-10-31T23:57:14.354Z,9.16
2022-10-31T23:59:41.549Z,9.18
